Isle, Minnesota
Current Conditions -  °F | °C
As of 8:00 PM on Wednesday 26 Nov 2014 (Local Time) from KJMR Reporting Station
Clear Clear  
Wind Chill:   Ceiling: Unl
Heat Index: 14°   Visibility: 10mi
Dew Point:   Wind: 8mph
Humidity: 62%   Direction: 340°NNW
Pressure: 30.35"   Gusts: NA
Location:  46.14°N, 93.47°W
Report Text: KJMR 270200Z AUTO 34007KT 10SM CLR M10/M16 A3035 RMK AO2
Loading
Personal Weather Stations






























Interactive Weather Map New forecast layout! Learn more

10-Day Weather Forecast

Advertisements
Track Severe Weather on mobile